Portada
METAR-TAF:

METAR-TAF

Aeroports :

Luang Prabang, Laos

latitud: 19-53N, longitud: 102-08E, altitud: 305 m

Observació

L'informe es va fer fa 7 hores i 19 minuts, a les 13:00 UTC
Vent 2 kt del Est/Nord-Est
Temperatura 28°C
Humitat 55%
Pressió 1007 hPa
Visibilitat: 5000 m
Escasses núvols a una alçada de 1900 ft
fum

METAR: VLLB 211300Z 06002KT 5000 FU FEW019 28/18 Q1007 NOSIG

Hora: 03:19 (20:19 UTC)

Pronòstic

L'informe es va fer fa 3 hores i 19 minuts, a les 17:00 UTC
Pronòstic vàlid del 21 a les 18 UTC al 22 a les 18 UTC
Vent 4 kt del Nord-Oest
Visibilitat: 4000 m
Núvols disperses a una alçada de 1000 ft
Núvols disperses a una alçada de 6000 ft
boirina
Temporalment
l' 22 a les 00 UTC al 22 a les 04 UTC
Visibilitat: 5000 m
Escasses núvols a una alçada de 2000 ft
Escasses núvols a una alçada de 6000 ft
boirina

TAF: VLLB 211700Z 2118/2218 32004KT 4000 BR SCT010 SCT060 TEMPO 2200/2204 5000 BR FEW020 FEW060

Observacions i pronòstics meteorològics de més de 4000 aeroports (METAR i TAF).

Les estacions disponibles són els punts grocs i vermells al mapa.

Posi el ratolí al punt desitjat per veure el nom de l'estació.

Feu clic per veure les observacions i els pronòstics meteorològics.

Per canviar el mapa: feu clic els botons verds amb una creu de color negre per apropar; al botó verd amb un guió per allunyar la imatge; o en les fletxes verdes per a mapes adjacents.


METAR-TAF: